TimeEST,TemperatureF,Dew PointF,Humidity,Sea Level PressureIn,VisibilityMPH,Wind Direction,Wind SpeedMPH,Gust SpeedMPH,PrecipitationIn,Events,Conditions,WindDirDegrees,DateUTC
12:15 AM,40.1,27.3,60,30.23,10.0,NNW,4.6,-,N/A,,Clear,340,2013-03-09 05:15:00
12:35 AM,39.2,26.8,61,30.24,10.0,NNW,4.6,-,N/A,,Clear,340,2013-03-09 05:35:00
12:55 AM,38.8,26.6,61,30.24,10.0,NNW,3.5,-,N/A,,Clear,330,2013-03-09 05:55:00
1:15 AM,38.3,26.6,63,30.25,10.0,Calm,Calm,-,N/A,,Clear,0,2013-03-09 06:15:00
1:35 AM,37.8,27.0,65,30.25,10.0,Calm,Calm,-,N/A,,Clear,0,2013-03-09 06:35:00
1:55 AM,37.2,27.7,68,30.25,10.0,Calm,Calm,-,N/A,,Clear,0,2013-03-09 06:55:00
2:15 AM,36.5,27.3,69,30.25,10.0,NNW,3.5,-,N/A,,Clear,330,2013-03-09 07:15:00
2:35 AM,36.5,27.7,70,30.24,10.0,Calm,Calm,-,N/A,,Clear,0,2013-03-09 07:35:00
2:55 AM,36.5,27.5,70,30.24,10.0,NNW,4.6,-,N/A,,Clear,330,2013-03-09 07:55:00
3:15 AM,36.5,27.5,70,30.24,10.0,NNW,3.5,-,N/A,,Clear,330,2013-03-09 08:15:00
3:35 AM,36.1,27.5,71,30.24,10.0,Calm,Calm,-,N/A,,Clear,0,2013-03-09 08:35:00
3:55 AM,35.6,27.1,71,30.25,10.0,NNW,3.5,-,N/A,,Clear,330,2013-03-09 08:55:00
4:15 AM,35.8,27.1,71,30.25,10.0,NNW,4.6,-,N/A,,Clear,330,2013-03-09 09:15:00
4:35 AM,35.2,26.6,71,30.24,10.0,NNW,4.6,-,N/A,,Clear,340,2013-03-09 09:35:00
4:55 AM,35.1,26.4,71,30.26,10.0,NNW,3.5,-,N/A,,Clear,340,2013-03-09 09:55:00
5:15 AM,35.2,26.4,70,30.27,10.0,NNW,4.6,-,N/A,,Clear,330,2013-03-09 10:15:00
5:35 AM,35.6,26.4,69,30.27,10.0,NNW,4.6,-,N/A,,Clear,340,2013-03-09 10:35:00
5:55 AM,35.6,26.2,69,30.27,10.0,NNW,3.5,-,N/A,,Clear,340,2013-03-09 10:55:00
6:15 AM,35.2,26.1,69,30.28,10.0,NNW,5.8,-,N/A,,Clear,340,2013-03-09 11:15:00
6:35 AM,35.1,26.1,70,30.28,10.0,Calm,Calm,-,N/A,,Clear,0,2013-03-09 11:35:00
6:55 AM,35.1,26.2,70,30.29,10.0,NNW,3.5,-,N/A,,Clear,330,2013-03-09 11:55:00
7:15 AM,36.5,26.2,66,30.29,10.0,NNW,4.6,-,N/A,,Clear,340,2013-03-09 12:15:00
7:35 AM,37.6,26.4,64,30.30,10.0,NNW,5.8,-,N/A,,Clear,340,2013-03-09 12:35:00
7:55 AM,38.3,25.5,60,30.30,10.0,NNW,9.2,-,N/A,,Clear,340,2013-03-09 12:55:00
8:15 AM,39.6,25.9,58,30.30,10.0,North,11.5,18.4,N/A,,Clear,360,2013-03-09 13:15:00
8:35 AM,42.4,27.3,55,30.30,10.0,North,11.5,-,N/A,,Clear,10,2013-03-09 13:35:00
8:55 AM,43.3,27.1,53,30.31,10.0,North,10.4,16.1,N/A,,Clear,350,2013-03-09 13:55:00
9:15 AM,45.1,27.7,50,30.32,10.0,North,9.2,-,N/A,,Clear,360,2013-03-09 14:15:00
9:35 AM,45.1,26.6,48,30.32,10.0,North,10.4,-,N/A,,Clear,350,2013-03-09 14:35:00
9:55 AM,45.1,25.5,46,30.32,10.0,North,9.2,-,N/A,,Clear,360,2013-03-09 14:55:00
10:15 AM,46.9,26.1,44,30.32,10.0,North,10.4,-,N/A,,Clear,10,2013-03-09 15:15:00
10:35 AM,48.4,26.1,42,30.31,10.0,North,10.4,16.1,N/A,,Clear,350,2013-03-09 15:35:00
10:55 AM,50.0,27.5,42,30.31,10.0,North,11.5,-,N/A,,Clear,360,2013-03-09 15:55:00
11:15 AM,50.0,25.7,39,30.31,10.0,North,9.2,17.3,N/A,,Clear,360,2013-03-09 16:15:00
11:35 AM,52.2,26.2,37,30.31,10.0,NNW,5.8,-,N/A,,Clear,330,2013-03-09 16:35:00
11:55 AM,52.7,24.8,34,30.30,10.0,North,10.4,17.3,N/A,,Clear,360,2013-03-09 16:55:00
12:15 PM,52.7,23.5,32,30.30,10.0,North,9.2,16.1,N/A,,Clear,350,2013-03-09 17:15:00
12:35 PM,53.1,22.6,31,30.30,10.0,NNW,6.9,11.5,N/A,,Clear,340,2013-03-09 17:35:00
12:55 PM,55.0,23.7,30,30.29,10.0,NNW,8.1,-,N/A,,Clear,340,2013-03-09 17:55:00
1:15 PM,55.0,22.1,28,30.28,10.0,North,8.1,-,N/A,,Clear,350,2013-03-09 18:15:00
1:35 PM,55.0,21.2,27,30.27,10.0,North,10.4,-,N/A,,Clear,360,2013-03-09 18:35:00
1:55 PM,56.3,21.7,26,30.27,10.0,NNW,4.6,16.1,N/A,,Clear,340,2013-03-09 18:55:00
2:15 PM,56.5,21.6,26,30.26,10.0,North,5.8,-,N/A,,Clear,350,2013-03-09 19:15:00
2:35 PM,56.7,21.2,25,30.26,10.0,NE,4.6,-,N/A,,Clear,40,2013-03-09 19:35:00
2:55 PM,57.6,19.4,23,30.26,10.0,North,5.8,-,N/A,,Clear,360,2013-03-09 19:55:00
3:15 PM,57.7,18.9,22,30.25,10.0,Calm,Calm,-,N/A,,Clear,0,2013-03-09 20:15:00
3:35 PM,57.7,17.2,21,30.25,10.0,NW,4.6,-,N/A,,Clear,320,2013-03-09 20:35:00
4:15 PM,58.6,17.4,20,30.25,10.0,North,6.9,-,N/A,,Clear,350,2013-03-09 21:15:00
4:35 PM,58.1,16.0,19,30.25,10.0,North,3.5,-,N/A,,Clear,360,2013-03-09 21:35:00
4:55 PM,57.6,18.0,21,30.25,10.0,North,8.1,-,N/A,,Clear,10,2013-03-09 21:55:00
5:15 PM,57.2,17.1,21,30.25,10.0,North,4.6,-,N/A,,Clear,10,2013-03-09 22:15:00
5:35 PM,55.8,19.2,24,30.26,10.0,North,3.5,-,N/A,,Clear,360,2013-03-09 22:35:00
5:55 PM,54.9,23.2,29,30.26,10.0,Calm,Calm,-,N/A,,Clear,0,2013-03-09 22:55:00
6:15 PM,52.7,24.8,34,30.27,10.0,Calm,Calm,-,N/A,,Clear,0,2013-03-09 23:15:00
6:35 PM,50.0,27.1,41,30.27,10.0,Calm,Calm,-,N/A,,Clear,0,2013-03-09 23:35:00
6:55 PM,46.2,32.7,59,30.27,10.0,Calm,Calm,-,N/A,,Clear,0,2013-03-09 23:55:00
7:15 PM,45.1,30.2,56,30.27,10.0,Calm,Calm,-,N/A,,Clear,0,2013-03-10 00:15:00
7:35 PM,43.7,31.6,63,30.28,10.0,Calm,Calm,-,N/A,,Clear,0,2013-03-10 00:35:00
7:55 PM,41.4,31.6,68,30.28,10.0,Calm,Calm,-,N/A,,Clear,0,2013-03-10 00:55:00
8:15 PM,39.7,32.2,74,30.29,10.0,Calm,Calm,-,N/A,,Clear,0,2013-03-10 01:15:00
8:35 PM,37.8,30.2,74,30.30,10.0,Calm,Calm,-,N/A,,Clear,0,2013-03-10 01:35:00
8:55 PM,37.6,29.8,74,30.30,10.0,Calm,Calm,-,N/A,,Clear,0,2013-03-10 01:55:00
9:15 PM,37.6,31.1,77,30.31,10.0,Calm,Calm,-,N/A,,Clear,0,2013-03-10 02:15:00
9:35 PM,36.5,30.2,78,30.31,10.0,Calm,Calm,-,N/A,,Clear,0,2013-03-10 02:35:00
9:55 PM,36.5,30.2,78,30.31,10.0,Calm,Calm,-,N/A,,Clear,0,2013-03-10 02:55:00
10:15 PM,35.2,30.0,81,30.32,10.0,Calm,Calm,-,N/A,,Clear,0,2013-03-10 03:15:00
10:35 PM,35.1,30.2,82,30.32,10.0,Calm,Calm,-,N/A,,Clear,0,2013-03-10 03:35:00
10:55 PM,35.1,30.2,82,30.32,10.0,Calm,Calm,-,N/A,,Clear,0,2013-03-10 03:55:00
11:15 PM,32.7,28.9,86,30.31,10.0,Calm,Calm,-,N/A,,Clear,0,2013-03-10 04:15:00
11:35 PM,32.5,28.4,85,30.31,10.0,Calm,Calm,-,N/A,,Clear,0,2013-03-10 04:35:00
11:55 PM,32.5,28.6,85,30.31,10.0,Calm,Calm,-,N/A,,Clear,0,2013-03-10 04:55:00